Terminal Aerodrome Forecast
Issued by NWS

Current Version | Previous Version | Graphics & Text | Print | Product List | Glossary On
Versions: 1 2 3 4 5 6 7 8 9 10 11 12 13 14 15 16 17 18 19 20 21 22 23 24 25
547
FTUS41 KRLX 131032 AAB
TAFCKB
TAF AMD
KCKB 131032Z 1311/1406 28010KT 2SM -SN BKN020
     FM131200 30010KT 3SM -SHSN BKN025
     FM131400 30013G19KT 3SM -SHSN BKN025
     FM131800 29013G20KT P6SM SCT050=

USA.gov is the U.S. government's official web portal to all federal, state and local government web resources and services.